sensor_id;sensor_type;location;lat;lon;timestamp;pressure;altitude;pressure_sealevel;temperature;humidity
66857;BME280;53766;50.280;19.160;2023-04-15T00:01:36;97125.97;;;18.74;47.70
66857;BME280;53766;50.280;19.160;2023-04-15T00:04:04;97131.53;;;18.73;47.82
66857;BME280;53766;50.280;19.160;2023-04-15T00:06:31;97129.69;;;18.73;47.81
66857;BME280;53766;50.280;19.160;2023-04-15T00:08:59;97122.72;;;18.72;47.83
66857;BME280;53766;50.280;19.160;2023-04-15T00:11:27;97131.31;;;18.74;47.79
66857;BME280;53766;50.280;19.160;2023-04-15T00:13:54;97133.41;;;18.72;47.90
66857;BME280;53766;50.280;19.160;2023-04-15T00:16:22;97138.72;;;18.72;47.79
66857;BME280;53766;50.280;19.160;2023-04-15T00:18:49;97138.72;;;18.72;47.73
66857;BME280;53766;50.280;19.160;2023-04-15T00:21:18;97133.41;;;18.72;47.84
66857;BME280;53766;50.280;19.160;2023-04-15T00:23:45;97138.72;;;18.72;47.78
66857;BME280;53766;50.280;19.160;2023-04-15T00:26:16;97149.41;;;18.72;47.92
66857;BME280;53766;50.280;19.160;2023-04-15T00:28:43;97144.06;;;18.72;47.88
66857;BME280;53766;50.280;19.160;2023-04-15T00:31:11;97147.53;;;18.73;47.89
66857;BME280;53766;50.280;19.160;2023-04-15T00:33:38;97147.78;;;18.71;47.89
66857;BME280;53766;50.280;19.160;2023-04-15T00:36:06;97153.13;;;18.71;47.76
66857;BME280;53766;50.280;19.160;2023-04-15T00:38:36;97165.41;;;18.72;47.86
66857;BME280;53766;50.280;19.160;2023-04-15T00:41:04;97169.94;;;18.71;47.90
66857;BME280;53766;50.280;19.160;2023-04-15T00:43:32;97163.78;;;18.71;47.78
66857;BME280;53766;50.280;19.160;2023-04-15T00:45:59;97169.13;;;18.71;47.76
66857;BME280;53766;50.280;19.160;2023-04-15T00:48:28;97174.47;;;18.71;47.93
66857;BME280;53766;50.280;19.160;2023-04-15T00:50:56;97163.78;;;18.71;47.86
66857;BME280;53766;50.280;19.160;2023-04-15T00:53:24;97171.22;;;18.69;47.97
66857;BME280;53766;50.280;19.160;2023-04-15T00:55:53;97180.59;;;18.71;48.01
66857;BME280;53766;50.280;19.160;2023-04-15T00:58:20;97174.47;;;18.71;47.98
66857;BME280;53766;50.280;19.160;2023-04-15T01:00:48;97174.47;;;18.71;47.99
66857;BME280;53766;50.280;19.160;2023-04-15T01:03:15;97171.00;;;18.70;47.76
66857;BME280;53766;50.280;19.160;2023-04-15T01:05:43;97178.16;;;18.70;47.97
66857;BME280;53766;50.280;19.160;2023-04-15T01:08:11;97177.13;;;18.71;47.98
66857;BME280;53766;50.280;19.160;2023-04-15T01:10:38;97184.31;;;18.70;47.88
66857;BME280;53766;50.280;19.160;2023-04-15T01:13:06;97177.34;;;18.69;47.80
66857;BME280;53766;50.280;19.160;2023-04-15T01:15:34;97178.16;;;18.70;47.93
66857;BME280;53766;50.280;19.160;2023-04-15T01:18:04;97183.50;;;18.70;48.03
66857;BME280;53766;50.280;19.160;2023-04-15T01:20:34;97188.81;;;18.70;47.99
66857;BME280;53766;50.280;19.160;2023-04-15T01:23:02;97179.22;;;18.69;47.97
66857;BME280;53766;50.280;19.160;2023-04-15T01:25:31;97178.16;;;18.70;48.00
66857;BME280;53766;50.280;19.160;2023-04-15T01:28:01;97171.22;;;18.69;48.01
66857;BME280;53766;50.280;19.160;2023-04-15T01:30:33;97173.88;;;18.69;47.76
66857;BME280;53766;50.280;19.160;2023-04-15T01:33:00;97181.88;;;18.69;48.04
66857;BME280;53766;50.280;19.160;2023-04-15T01:35:29;97175.75;;;18.68;48.18
66857;BME280;53766;50.280;19.160;2023-04-15T01:38:01;97180.25;;;18.68;48.03
66857;BME280;53766;50.280;19.160;2023-04-15T01:40:31;97180.25;;;18.68;48.07
66857;BME280;53766;50.280;19.160;2023-04-15T01:42:58;97181.31;;;18.67;47.96
66857;BME280;53766;50.280;19.160;2023-04-15T01:45:26;97186.63;;;18.67;47.94
66857;BME280;53766;50.280;19.160;2023-04-15T01:47:54;97184.78;;;18.67;48.23
66857;BME280;53766;50.280;19.160;2023-04-15T01:50:22;97181.31;;;18.67;47.91
66857;BME280;53766;50.280;19.160;2023-04-15T01:52:49;97188.25;;;18.68;47.98
66857;BME280;53766;50.280;19.160;2023-04-15T01:55:17;97183.19;;;18.66;48.20
66857;BME280;53766;50.280;19.160;2023-04-15T01:57:44;97189.31;;;18.67;47.99
66857;BME280;53766;50.280;19.160;2023-04-15T02:00:12;97190.34;;;18.66;48.15
66857;BME280;53766;50.280;19.160;2023-04-15T02:02:40;97198.34;;;18.66;47.92
66857;BME280;53766;50.280;19.160;2023-04-15T02:05:08;97205.31;;;18.67;48.07
66857;BME280;53766;50.280;19.160;2023-04-15T02:07:35;97205.31;;;18.67;48.12
66857;BME280;53766;50.280;19.160;2023-04-15T02:10:04;97216.78;;;18.67;48.19
66857;BME280;53766;50.280;19.160;2023-04-15T02:12:32;97217.84;;;18.66;48.04
66857;BME280;53766;50.280;19.160;2023-04-15T02:14:59;97218.88;;;18.65;48.04
66857;BME280;53766;50.280;19.160;2023-04-15T02:17:26;97219.66;;;18.66;48.17
66857;BME280;53766;50.280;19.160;2023-04-15T02:19:57;97219.66;;;18.66;48.15
66857;BME280;53766;50.280;19.160;2023-04-15T02:22:25;97218.06;;;18.65;48.10
66857;BME280;53766;50.280;19.160;2023-04-15T02:24:53;97218.06;;;18.65;48.21
66857;BME280;53766;50.280;19.160;2023-04-15T02:27:20;97214.34;;;18.66;48.03
66857;BME280;53766;50.280;19.160;2023-04-15T02:29:48;97212.72;;;18.65;48.03
66857;BME280;53766;50.280;19.160;2023-04-15T02:32:17;97211.94;;;18.64;48.24
66857;BME280;53766;50.280;19.160;2023-04-15T02:34:45;97210.06;;;18.65;48.06
66857;BME280;53766;50.280;19.160;2023-04-15T02:37:13;97220.16;;;18.63;48.09
66857;BME280;53766;50.280;19.160;2023-04-15T02:39:40;97227.09;;;18.64;48.09
66857;BME280;53766;50.280;19.160;2023-04-15T02:42:08;97229.75;;;18.64;48.03
66857;BME280;53766;50.280;19.160;2023-04-15T02:44:35;97232.44;;;18.64;48.29
66857;BME280;53766;50.280;19.160;2023-04-15T02:47:02;97230.03;;;18.62;48.17
66857;BME280;53766;50.280;19.160;2023-04-15T02:49:32;97232.44;;;18.64;48.20
66857;BME280;53766;50.280;19.160;2023-04-15T02:52:00;97236.97;;;18.63;48.11
66857;BME280;53766;50.280;19.160;2023-04-15T02:54:28;97233.50;;;18.63;48.09
66857;BME280;53766;50.280;19.160;2023-04-15T02:56:55;97239.88;;;18.62;48.27
66857;BME280;53766;50.280;19.160;2023-04-15T02:59:23;97245.22;;;18.62;48.17
66857;BME280;53766;50.280;19.160;2023-04-15T03:01:50;97244.38;;;18.61;48.25
66857;BME280;53766;50.280;19.160;2023-04-15T03:04:19;97256.69;;;18.62;48.09
66857;BME280;53766;50.280;19.160;2023-04-15T03:06:46;97255.88;;;18.62;48.23
66857;BME280;53766;50.280;19.160;2023-04-15T03:09:14;97261.22;;;18.62;48.20
66857;BME280;53766;50.280;19.160;2023-04-15T03:11:41;97258.56;;;18.62;48.06
66857;BME280;53766;50.280;19.160;2023-04-15T03:14:09;97257.72;;;18.61;48.16
66857;BME280;53766;50.280;19.160;2023-04-15T03:16:36;97263.31;;;18.60;48.12
66857;BME280;53766;50.280;19.160;2023-04-15T03:19:04;97260.63;;;18.60;48.23
66857;BME280;53766;50.280;19.160;2023-04-15T03:21:31;97259.56;;;18.61;48.16
66857;BME280;53766;50.280;19.160;2023-04-15T03:23:58;97264.91;;;18.61;48.12
66857;BME280;53766;50.280;19.160;2023-04-15T03:26:27;97256.34;;;18.59;48.19
66857;BME280;53766;50.280;19.160;2023-04-15T03:28:56;97268.63;;;18.60;48.08
66857;BME280;53766;50.280;19.160;2023-04-15T03:31:23;97275.81;;;18.59;48.24
66857;BME280;53766;50.280;19.160;2023-04-15T03:33:51;97276.84;;;18.58;48.17
66857;BME280;53766;50.280;19.160;2023-04-15T03:36:18;97277.66;;;18.59;48.17
66857;BME280;53766;50.280;19.160;2023-04-15T03:38:46;97276.06;;;18.58;48.19
66857;BME280;53766;50.280;19.160;2023-04-15T03:41:13;97276.84;;;18.58;48.24
66857;BME280;53766;50.280;19.160;2023-04-15T03:43:41;97277.66;;;18.59;48.33
66857;BME280;53766;50.280;19.160;2023-04-15T03:46:09;97291.22;;;18.57;48.06
66857;BME280;53766;50.280;19.160;2023-04-15T03:48:36;97297.38;;;18.58;48.31
66857;BME280;53766;50.280;19.160;2023-04-15T03:51:04;97296.56;;;18.57;48.17
66857;BME280;53766;50.280;19.160;2023-04-15T03:53:32;97296.56;;;18.57;48.18
66857;BME280;53766;50.280;19.160;2023-04-15T03:55:59;97309.88;;;18.57;48.14
66857;BME280;53766;50.280;19.160;2023-04-15T03:58:27;97303.75;;;18.57;48.22
66857;BME280;53766;50.280;19.160;2023-04-15T04:00:54;97306.41;;;18.57;48.40
66857;BME280;53766;50.280;19.160;2023-04-15T04:03:21;97303.97;;;18.55;48.27
66857;BME280;53766;50.280;19.160;2023-04-15T04:05:50;97304.81;;;18.56;48.25
66857;BME280;53766;50.280;19.160;2023-04-15T04:08:17;97310.13;;;18.56;48.09
66857;BME280;53766;50.280;19.160;2023-04-15T04:10:45;97310.94;;;18.56;48.19
66857;BME280;53766;50.280;19.160;2023-04-15T04:13:13;97304.81;;;18.56;48.15
66857;BME280;53766;50.280;19.160;2023-04-15T04:15:40;97313.84;;;18.55;48.18
66857;BME280;53766;50.280;19.160;2023-04-15T04:18:08;97319.16;;;18.55;48.40
66857;BME280;53766;50.280;19.160;2023-04-15T04:20:35;97326.13;;;18.56;48.13
66857;BME280;53766;50.280;19.160;2023-04-15T04:23:03;97332.28;;;18.56;48.39
66857;BME280;53766;50.280;19.160;2023-04-15T04:25:30;97324.50;;;18.55;48.28
66857;BME280;53766;50.280;19.160;2023-04-15T04:27:59;97324.50;;;18.55;48.37
66857;BME280;53766;50.280;19.160;2023-04-15T04:30:26;97340.50;;;18.55;48.22
66857;BME280;53766;50.280;19.160;2023-04-15T04:32:53;97345.81;;;18.55;48.35
66857;BME280;53766;50.280;19.160;2023-04-15T04:35:21;97345.81;;;18.55;48.18
66857;BME280;53766;50.280;19.160;2023-04-15T04:37:49;97353.81;;;18.55;48.23
66857;BME280;53766;50.280;19.160;2023-04-15T04:40:16;97356.50;;;18.55;47.92
66857;BME280;53766;50.280;19.160;2023-04-15T04:42:44;97356.50;;;18.55;48.13
66857;BME280;53766;50.280;19.160;2023-04-15T04:45:12;97346.88;;;18.54;48.36
66857;BME280;53766;50.280;19.160;2023-04-15T04:47:39;97344.22;;;18.54;48.41
66857;BME280;53766;50.280;19.160;2023-04-15T04:50:07;97341.56;;;18.54;48.16
66857;BME280;53766;50.280;19.160;2023-04-15T04:52:35;97341.56;;;18.54;48.21
66857;BME280;53766;50.280;19.160;2023-04-15T04:55:03;97349.56;;;18.54;48.24
66857;BME280;53766;50.280;19.160;2023-04-15T04:57:30;97351.16;;;18.55;48.31
66857;BME280;53766;50.280;19.160;2023-04-15T04:59:58;97356.50;;;18.55;48.32
66857;BME280;53766;50.280;19.160;2023-04-15T05:02:25;97348.75;;;18.53;48.26
66857;BME280;53766;50.280;19.160;2023-04-15T05:04:53;97351.16;;;18.55;48.19
66857;BME280;53766;50.280;19.160;2023-04-15T05:07:21;97354.88;;;18.54;48.17
66857;BME280;53766;50.280;19.160;2023-04-15T05:09:49;97351.97;;;18.55;48.18
66857;BME280;53766;50.280;19.160;2023-04-15T05:12:17;97345.03;;;18.54;48.17
66857;BME280;53766;50.280;19.160;2023-04-15T05:14:44;97342.13;;;18.56;48.19
66857;BME280;53766;50.280;19.160;2023-04-15T05:17:13;97338.88;;;18.54;48.16
66857;BME280;53766;50.280;19.160;2023-04-15T05:19:40;97347.47;;;18.56;48.22
66857;BME280;53766;50.280;19.160;2023-04-15T05:22:07;97345.81;;;18.55;48.27
66857;BME280;53766;50.280;19.160;2023-04-15T05:24:35;97356.50;;;18.55;48.17
66857;BME280;53766;50.280;19.160;2023-04-15T05:27:02;97352.81;;;18.56;48.18
66857;BME280;53766;50.280;19.160;2023-04-15T05:29:30;97365.06;;;18.57;48.20
66857;BME280;53766;50.280;19.160;2023-04-15T05:31:57;97358.13;;;18.56;48.28
66857;BME280;53766;50.280;19.160;2023-04-15T05:34:25;97367.16;;;18.55;48.37
66857;BME280;53766;50.280;19.160;2023-04-15T05:36:52;97353.25;;;18.53;48.07
66857;BME280;53766;50.280;19.160;2023-04-15T05:39:19;97364.38;;;18.49;48.36
66857;BME280;53766;50.280;19.160;2023-04-15T05:41:47;97360.56;;;18.45;48.30
66857;BME280;53766;50.280;19.160;2023-04-15T05:44:15;97369.81;;;18.43;48.22
66857;BME280;53766;50.280;19.160;2023-04-15T05:46:42;97377.47;;;18.39;48.16
66857;BME280;53766;50.280;19.160;2023-04-15T05:49:10;97382.22;;;18.37;48.19
66857;BME280;53766;50.280;19.160;2023-04-15T05:51:38;97382.69;;;18.34;47.94
66857;BME280;53766;50.280;19.160;2023-04-15T05:54:05;97391.69;;;18.33;48.05
66857;BME280;53766;50.280;19.160;2023-04-15T05:56:33;97387.66;;;18.30;47.67
66857;BME280;53766;50.280;19.160;2023-04-15T05:59:00;97386.03;;;18.29;47.32
66857;BME280;53766;50.280;19.160;2023-04-15T06:01:28;97384.63;;;18.27;47.24
66857;BME280;53766;50.280;19.160;2023-04-15T06:03:56;97396.53;;;18.24;47.26
66857;BME280;53766;50.280;19.160;2023-04-15T06:06:24;97398.41;;;18.24;47.06
66857;BME280;53766;50.280;19.160;2023-04-15T06:08:53;97395.75;;;18.24;46.37
66857;BME280;53766;50.280;19.160;2023-04-15T06:11:22;97394.72;;;18.25;46.08
66857;BME280;53766;50.280;19.160;2023-04-15T06:13:49;97389.38;;;18.25;45.65
66857;BME280;53766;50.280;19.160;2023-04-15T06:16:17;97397.97;;;18.27;45.61
66857;BME280;53766;50.280;19.160;2023-04-15T06:18:44;97406.53;;;18.29;45.52
66857;BME280;53766;50.280;19.160;2023-04-15T06:21:12;97407.34;;;18.29;45.49
66857;BME280;53766;50.280;19.160;2023-04-15T06:23:39;97404.44;;;18.31;45.50
66857;BME280;53766;50.280;19.160;2023-04-15T06:26:07;97403.41;;;18.32;45.57
66857;BME280;53766;50.280;19.160;2023-04-15T06:28:34;97404.00;;;18.34;45.69
66857;BME280;53766;50.280;19.160;2023-04-15T06:31:02;97403.53;;;18.37;45.86
66857;BME280;53766;50.280;19.160;2023-04-15T06:33:30;97410.50;;;18.38;45.97
66857;BME280;53766;50.280;19.160;2023-04-15T06:35:58;97411.09;;;18.40;45.80
66857;BME280;53766;50.280;19.160;2023-04-15T06:38:25;97404.69;;;18.41;45.97
66857;BME280;53766;50.280;19.160;2023-04-15T06:40:52;97413.28;;;18.43;45.93
66857;BME280;53766;50.280;19.160;2023-04-15T06:43:20;97413.28;;;18.43;46.09
66857;BME280;53766;50.280;19.160;2023-04-15T06:45:47;97407.94;;;18.43;46.09
66857;BME280;53766;50.280;19.160;2023-04-15T06:48:15;97420.25;;;18.44;46.04
66857;BME280;53766;50.280;19.160;2023-04-15T06:50:42;97414.94;;;18.44;46.14
66857;BME280;53766;50.280;19.160;2023-04-15T06:53:11;97425.59;;;18.44;46.25
66857;BME280;53766;50.280;19.160;2023-04-15T06:55:38;97426.16;;;18.46;46.17
66857;BME280;53766;50.280;19.160;2023-04-15T06:58:06;97429.41;;;18.48;46.39
66857;BME280;53766;50.280;19.160;2023-04-15T07:00:34;97438.22;;;18.49;46.25
66857;BME280;53766;50.280;19.160;2023-04-15T07:03:01;97432.06;;;18.48;46.28
66857;BME280;53766;50.280;19.160;2023-04-15T07:05:30;97439.47;;;18.46;46.02
66857;BME280;53766;50.280;19.160;2023-04-15T07:07:58;97437.88;;;18.45;45.67
66857;BME280;53766;50.280;19.160;2023-04-15T07:10:26;97432.53;;;18.45;45.51
66857;BME280;53766;50.280;19.160;2023-04-15T07:12:53;97441.59;;;18.44;45.68
66857;BME280;53766;50.280;19.160;2023-04-15T07:15:21;97439.94;;;18.43;45.31
66857;BME280;53766;50.280;19.160;2023-04-15T07:17:50;97450.59;;;18.43;45.41
66857;BME280;53766;50.280;19.160;2023-04-15T07:20:17;97450.59;;;18.43;45.33
66857;BME280;53766;50.280;19.160;2023-04-15T07:22:45;97449.59;;;18.44;44.60
66857;BME280;53766;50.280;19.160;2023-04-15T07:25:12;97446.91;;;18.44;44.41
66857;BME280;53766;50.280;19.160;2023-04-15T07:27:40;97451.41;;;18.44;44.50
66857;BME280;53766;50.280;19.160;2023-04-15T07:30:08;97449.03;;;18.24;43.32
66857;BME280;53766;50.280;19.160;2023-04-15T07:32:35;97456.84;;;18.07;42.84
66857;BME280;53766;50.280;19.160;2023-04-15T07:35:03;97455.16;;;17.94;45.41
66857;BME280;53766;50.280;19.160;2023-04-15T07:37:31;97464.31;;;17.86;43.75
66857;BME280;53766;50.280;19.160;2023-04-15T07:39:58;97450.59;;;17.83;44.96
66857;BME280;53766;50.280;19.160;2023-04-15T07:42:25;97452.25;;;17.84;45.88
66857;BME280;53766;50.280;19.160;2023-04-15T07:44:53;97452.25;;;17.84;48.18
66857;BME280;53766;50.280;19.160;2023-04-15T07:47:21;97447.06;;;17.71;43.94
66857;BME280;53766;50.280;19.160;2023-04-15T07:49:48;97446.75;;;17.60;43.96
66857;BME280;53766;50.280;19.160;2023-04-15T07:52:17;97438.25;;;17.52;43.67
66857;BME280;53766;50.280;19.160;2023-04-15T07:54:45;97442.75;;;17.33;43.32
66857;BME280;53766;50.280;19.160;2023-04-15T07:57:12;97443.22;;;17.30;42.28
66857;BME280;53766;50.280;19.160;2023-04-15T07:59:40;97438.16;;;17.21;41.40
66857;BME280;53766;50.280;19.160;2023-04-15T08:02:08;97439.81;;;17.22;41.22
66857;BME280;53766;50.280;19.160;2023-04-15T08:04:37;97438.97;;;17.22;42.50
66857;BME280;53766;50.280;19.160;2023-04-15T08:07:05;97434.19;;;17.31;42.73
66857;BME280;53766;50.280;19.160;2023-04-15T08:09:33;97440.41;;;17.43;45.68
66857;BME280;53766;50.280;19.160;2023-04-15T08:12:00;97440.19;;;17.44;44.51
66857;BME280;53766;50.280;19.160;2023-04-15T08:14:28;97444.09;;;17.42;41.90
66857;BME280;53766;50.280;19.160;2023-04-15T08:16:55;97437.59;;;17.38;42.96
66857;BME280;53766;50.280;19.160;2023-04-15T08:19:23;97440.84;;;17.40;42.50
66857;BME280;53766;50.280;19.160;2023-04-15T08:21:50;97443.88;;;17.43;43.70
66857;BME280;53766;50.280;19.160;2023-04-15T08:24:18;97441.28;;;17.37;42.28
66857;BME280;53766;50.280;19.160;2023-04-15T08:26:45;97437.00;;;17.36;43.94
66857;BME280;53766;50.280;19.160;2023-04-15T08:29:13;97439.28;;;17.32;42.05
66857;BME280;53766;50.280;19.160;2023-04-15T08:31:41;97437.69;;;17.31;43.19
66857;BME280;53766;50.280;19.160;2023-04-15T08:34:10;97441.50;;;17.35;43.93
66857;BME280;53766;50.280;19.160;2023-04-15T08:36:41;97441.00;;;17.45;45.12
66857;BME280;53766;50.280;19.160;2023-04-15T08:39:09;97448.75;;;17.46;43.48
66857;BME280;53766;50.280;19.160;2023-04-15T08:41:46;97452.16;;;17.54;44.27
66857;BME280;53766;50.280;19.160;2023-04-15T08:44:16;97448.38;;;17.61;43.57
66857;BME280;53766;50.280;19.160;2023-04-15T08:46:44;97454.88;;;17.65;44.07
66857;BME280;53766;50.280;19.160;2023-04-15T08:49:12;97449.13;;;17.68;44.16
66857;BME280;53766;50.280;19.160;2023-04-15T08:51:40;97451.19;;;17.66;43.66
66857;BME280;53766;50.280;19.160;2023-04-15T08:54:08;97446.88;;;17.65;44.37
66857;BME280;53766;50.280;19.160;2023-04-15T08:56:37;97454.28;;;17.63;42.23
66857;BME280;53766;50.280;19.160;2023-04-15T08:59:06;97450.59;;;17.64;41.89
66857;BME280;53766;50.280;19.160;2023-04-15T09:01:33;97455.94;;;17.64;42.81
66857;BME280;53766;50.280;19.160;2023-04-15T09:04:02;97460.59;;;17.69;43.10
66857;BME280;53766;50.280;19.160;2023-04-15T09:06:33;97452.81;;;17.67;42.54
66857;BME280;53766;50.280;19.160;2023-04-15T09:09:00;97453.41;;;17.69;42.26
66857;BME280;53766;50.280;19.160;2023-04-15T09:11:29;97454.88;;;17.65;41.57
66857;BME280;53766;50.280;19.160;2023-04-15T09:13:57;97454.66;;;17.67;41.95
66857;BME280;53766;50.280;19.160;2023-04-15T09:16:25;97456.06;;;17.69;42.22
66857;BME280;53766;50.280;19.160;2023-04-15T09:18:52;97451.91;;;17.74;43.29
66857;BME280;53766;50.280;19.160;2023-04-15T09:21:21;97449.47;;;17.72;42.48
66857;BME280;53766;50.280;19.160;2023-04-15T09:23:55;97453.41;;;17.69;41.91
66857;BME280;53766;50.280;19.160;2023-04-15T09:26:36;97455.03;;;17.71;42.12
66857;BME280;53766;50.280;19.160;2023-04-15T09:29:10;97454.00;;;17.72;43.20
66857;BME280;53766;50.280;19.160;2023-04-15T09:31:40;97449.72;;;17.71;41.80
66857;BME280;53766;50.280;19.160;2023-04-15T09:34:09;97449.47;;;17.72;42.12
66857;BME280;53766;50.280;19.160;2023-04-15T09:36:55;97456.44;;;17.73;42.63
66857;BME280;53766;50.280;19.160;2023-04-15T09:39:23;97450.66;;;17.76;42.07
66857;BME280;53766;50.280;19.160;2023-04-15T09:42:05;97450.91;;;17.75;42.50
66857;BME280;53766;50.280;19.160;2023-04-15T09:44:33;97451.13;;;17.73;42.51
66857;BME280;53766;50.280;19.160;2023-04-15T09:47:00;97447.78;;;17.78;42.30
66857;BME280;53766;50.280;19.160;2023-04-15T09:49:28;97455.31;;;17.81;42.22
66857;BME280;53766;50.280;19.160;2023-04-15T09:52:00;97442.41;;;17.84;41.98
66857;BME280;53766;50.280;19.160;2023-04-15T09:54:36;97449.72;;;17.89;41.27
66857;BME280;53766;50.280;19.160;2023-04-15T09:57:08;97442.91;;;17.93;41.28
66857;BME280;53766;50.280;19.160;2023-04-15T09:59:36;97450.91;;;17.93;41.97
66857;BME280;53766;50.280;19.160;2023-04-15T10:02:04;97445.56;;;17.93;42.07
66857;BME280;53766;50.280;19.160;2023-04-15T10:04:35;97445.56;;;17.93;41.65
66857;BME280;53766;50.280;19.160;2023-04-15T10:07:07;97445.09;;;17.96;40.98
66857;BME280;53766;50.280;19.160;2023-04-15T10:09:37;97442.69;;;17.95;41.16
66857;BME280;53766;50.280;19.160;2023-04-15T10:12:05;97442.69;;;17.95;41.51
66857;BME280;53766;50.280;19.160;2023-04-15T10:14:34;97457.41;;;17.97;41.05
66857;BME280;53766;50.280;19.160;2023-04-15T10:17:06;97450.69;;;17.95;41.24
66857;BME280;53766;50.280;19.160;2023-04-15T10:19:36;97447.19;;;17.94;41.37
66857;BME280;53766;50.280;19.160;2023-04-15T10:22:05;97433.84;;;17.94;41.94
66857;BME280;53766;50.280;19.160;2023-04-15T10:24:33;97447.19;;;17.94;41.38
66857;BME280;53766;50.280;19.160;2023-04-15T10:27:02;97449.41;;;17.97;40.70
66857;BME280;53766;50.280;19.160;2023-04-15T10:29:30;97450.81;;;18.00;40.99
66857;BME280;53766;50.280;19.160;2023-04-15T10:31:58;97447.94;;;18.01;41.41
66857;BME280;53766;50.280;19.160;2023-04-15T10:34:26;97445.25;;;18.01;42.88
66857;BME280;53766;50.280;19.160;2023-04-15T10:36:55;97443.03;;;17.98;42.58
66857;BME280;53766;50.280;19.160;2023-04-15T10:42:08;97452.28;;;17.96;43.04
66857;BME280;53766;50.280;19.160;2023-04-15T10:44:49;97447.19;;;17.94;43.02
66857;BME280;53766;50.280;19.160;2023-04-15T10:47:21;97450.44;;;17.96;43.65
66857;BME280;53766;50.280;19.160;2023-04-15T10:50:00;97449.28;;;17.92;43.34
66857;BME280;53766;50.280;19.160;2023-04-15T10:52:28;97441.84;;;17.94;42.74
66857;BME280;53766;50.280;19.160;2023-04-15T10:55:13;97444.31;;;17.96;44.31
66857;BME280;53766;50.280;19.160;2023-04-15T10:57:44;97451.03;;;17.98;44.15
66857;BME280;53766;50.280;19.160;2023-04-15T11:00:12;97452.06;;;17.97;44.38
66857;BME280;53766;50.280;19.160;2023-04-15T11:02:46;97462.72;;;17.97;44.21
66857;BME280;53766;50.280;19.160;2023-04-15T11:05:15;97455.75;;;17.96;42.86
66857;BME280;53766;50.280;19.160;2023-04-15T11:12:44;97453.25;;;18.01;42.24
66857;BME280;53766;50.280;19.160;2023-04-15T11:15:31;97447.94;;;18.01;44.05
66857;BME280;53766;50.280;19.160;2023-04-15T11:18:23;97447.34;;;17.99;42.59
66857;BME280;53766;50.280;19.160;2023-04-15T11:21:00;97451.63;;;18.00;43.41
66857;BME280;53766;50.280;19.160;2023-04-15T11:25:58;97455.25;;;18.06;43.16
66857;BME280;53766;50.280;19.160;2023-04-15T11:28:28;97450.34;;;18.03;42.60
66857;BME280;53766;50.280;19.160;2023-04-15T11:30:57;97450.00;;;17.99;42.11
66857;BME280;53766;50.280;19.160;2023-04-15T11:33:24;97453.69;;;17.98;41.96
66857;BME280;53766;50.280;19.160;2023-04-15T11:35:53;97451.47;;;17.95;43.78
66857;BME280;53766;50.280;19.160;2023-04-15T11:38:21;97455.34;;;17.99;41.92
66857;BME280;53766;50.280;19.160;2023-04-15T11:40:49;97456.94;;;18.00;42.88
66857;BME280;53766;50.280;19.160;2023-04-15T11:43:21;97451.63;;;18.00;44.17
66857;BME280;53766;50.280;19.160;2023-04-15T11:48:26;97461.09;;;17.96;42.49
66857;BME280;53766;50.280;19.160;2023-04-15T11:51:05;97462.72;;;17.97;44.49
66857;BME280;53766;50.280;19.160;2023-04-15T11:53:51;97463.75;;;17.96;43.20
66857;BME280;53766;50.280;19.160;2023-04-15T11:56:21;97460.28;;;17.96;43.97
66857;BME280;53766;50.280;19.160;2023-04-15T11:58:58;97461.56;;;17.93;42.90
66857;BME280;53766;50.280;19.160;2023-04-15T12:01:53;97464.00;;;17.95;42.53
66857;BME280;53766;50.280;19.160;2023-04-15T12:04:20;97462.94;;;17.96;44.73
66857;BME280;53766;50.280;19.160;2023-04-15T12:06:52;97461.34;;;17.95;42.78
66857;BME280;53766;50.280;19.160;2023-04-15T12:09:20;97457.84;;;17.94;43.77
66857;BME280;53766;50.280;19.160;2023-04-15T12:11:49;97464.00;;;17.95;42.57
66857;BME280;53766;50.280;19.160;2023-04-15T12:16:53;97476.47;;;17.94;44.79
66857;BME280;53766;50.280;19.160;2023-04-15T12:22:00;97473.38;;;17.97;43.21
66857;BME280;53766;50.280;19.160;2023-04-15T12:24:33;97468.44;;;18.01;43.49
66857;BME280;53766;50.280;19.160;2023-04-15T12:27:07;97481.06;;;18.05;42.82
66857;BME280;53766;50.280;19.160;2023-04-15T12:29:36;97476.94;;;18.09;42.34
66857;BME280;53766;50.280;19.160;2023-04-15T12:32:11;97476.47;;;18.13;42.49
66857;BME280;53766;50.280;19.160;2023-04-15T12:34:43;97471.13;;;18.13;42.84
66857;BME280;53766;50.280;19.160;2023-04-15T12:37:12;97468.94;;;18.09;43.79
66857;BME280;53766;50.280;19.160;2023-04-15T12:39:42;97470.41;;;18.05;43.25
66857;BME280;53766;50.280;19.160;2023-04-15T12:42:11;97472.41;;;18.10;44.79
66857;BME280;53766;50.280;19.160;2023-04-15T12:44:39;97477.06;;;18.15;42.25
66857;BME280;53766;50.280;19.160;2023-04-15T12:47:08;97471.72;;;18.15;42.66
66857;BME280;53766;50.280;19.160;2023-04-15T12:49:36;97475.56;;;18.19;42.19
66857;BME280;53766;50.280;19.160;2023-04-15T12:52:04;97463.28;;;18.18;42.61
66857;BME280;53766;50.280;19.160;2023-04-15T12:54:32;97466.53;;;18.20;43.25
66857;BME280;53766;50.280;19.160;2023-04-15T12:57:00;97465.94;;;18.18;42.00
66857;BME280;53766;50.280;19.160;2023-04-15T12:59:34;97468.38;;;18.19;42.34
66857;BME280;53766;50.280;19.160;2023-04-15T13:02:02;97462.00;;;18.20;42.47
66857;BME280;53766;50.280;19.160;2023-04-15T13:04:30;97464.22;;;18.23;41.57
66857;BME280;53766;50.280;19.160;2023-04-15T13:06:58;97461.78;;;18.22;41.76
66857;BME280;53766;50.280;19.160;2023-04-15T13:09:25;97462.84;;;18.21;43.83
66857;BME280;53766;50.280;19.160;2023-04-15T13:11:53;97466.31;;;18.21;41.24
66857;BME280;53766;50.280;19.160;2023-04-15T13:14:21;97468.75;;;18.23;40.13
66857;BME280;53766;50.280;19.160;2023-04-15T13:16:49;97468.75;;;18.23;40.61